Terminal Aerodrome Forecast
Issued by NWS Kansas City/Pleasant Hill, MO

Home | Current Version | Previous Version | Text Only | Print | Product List | Glossary On
Versions: 1 2 3 4 5 6 7 8 9 10 11 12
000
FTUS43 KEAX 200531
TAFMCI
TAF
KMCI 200531Z 2006/2106 19012KT P6SM OVC200
     FM200800 20010KT P6SM SCT013 BKN040
     FM201100 20008KT P6SM BKN012
     FM201600 20007KT 5SM -DZ BR SCT008 OVC011
     FM210000 15005KT 4SM -DZ BR BKN008 OVC021=

USA.gov is the U.S. government's official web portal to all federal, state and local government web resources and services.